• Join FlightAware (Why Join?)
  • Login
  • US Flag 
12:11AM EDT


 

Airport Tracker/Info


-or-


 

Live Flight TrackerFlight Track Log ✈ TAM3195 ✈ 14-Nov-2013 ✈ SBVT / VIX - SBRJ / SDU

Flight Track Log - Related Links

Times and Time Zones

All times are in EST time to prevent confusion due to time zone crossing. See the TAM3195 flight status page for this flight to view local times or setup timezone preferences in your user account.

Time Position Orientation Groundspeed Altitude Reporting Facility
EST Latitude Longitude Course Direction KTS MPH feet Rate Location/Type
11:21AM -21.2784 -41.3743 225° Southwest  Level Estimated
11:22AM -21.3268 -41.4265 225° Southwest  Level Estimated
11:23AM -21.3752 -41.4787 225° Southwest  Level Estimated
11:24AM -21.4236 -41.5310 225° Southwest  Level Estimated
11:25AM -21.4719 -41.5833 225° Southwest  Level Estimated
11:26AM -21.5203 -41.6356 225° Southwest  Level Estimated
11:27AM -21.5686 -41.6879 225° Southwest  Level Estimated
11:28AM -21.6169 -41.7403 225° Southwest  Level Estimated
11:29AM -21.6652 -41.7927 225° Southwest  Level Estimated
11:30AM -21.7135 -41.8452 225° Southwest  Level Estimated
11:31AM -21.7618 -41.8977 225° Southwest  Level Estimated
11:32AM -21.8100 -41.9502 225° Southwest  Level Estimated
11:33AM -21.8583 -42.0028 225° Southwest  Level Estimated
11:34AM -21.9065 -42.0554 225° Southwest  Level Estimated
11:35AM -21.9547 -42.1080 225° Southwest  Level Estimated
11:36AM -22.0029 -42.1607 225° Southwest  Level Estimated
11:37AM -22.0510 -42.2134 225° Southwest  Level Estimated
11:38AM -22.0992 -42.2661 225° Southwest  Level Estimated
11:39AM -22.1473 -42.3189 225° Southwest  Level Estimated
11:40AM -22.1954 -42.3717 225° Southwest  Level Estimated
11:41AM -22.2435 -42.4246 225° Southwest  Level Estimated
11:42AM -22.2916 -42.4775 225° Southwest  Level Estimated
11:43AM -22.3397 -42.5304 226° Southwest  Level Estimated
11:44AM -22.3877 -42.5833 226° Southwest  Level Estimated
11:45AM -22.4357 -42.6363 226° Southwest  Level Estimated
11:46AM -22.4838 -42.6894 226° Southwest  Level Estimated
11:47AM -22.5318 -42.7424 226° Southwest  Level Estimated
11:48AM -22.5797 -42.7955 226° Southwest  Level Estimated
11:49AM -22.6277 -42.8487 226° Southwest  Level Estimated
11:50AM -22.6756 -42.9018 226° Southwest  Level Estimated
11:51AM -22.7236 -42.9551 226° Southwest  Level Estimated
11:52AM -22.7715 -43.0083 226° Southwest  Level Estimated
11:53AM -22.8194 -43.0616 226° Southwest  Level Estimated
11:54AM -22.8672 -43.1149 226° Southwest  Level Estimated
11:55AM -22.9105 -43.1631 226° Southwest  Level Estimated
11:56AM -22.9105 -43.1631 250° West  Level Estimated
11:57AM -22.9105 -43.1631 250° West  Level Estimated
11:58AM -22.9105 -43.1631 250° West  Level Estimated
11:59AM -22.9105 -43.1631 250° West  Level Estimated
12:00PM -22.9105 -43.1631 250° West  Level Estimated
12:01PM -22.9105 -43.1631 250° West  Level Estimated
12:02PM -22.9105 -43.1631 250° West  Level Estimated
12:03PM -22.9105 -43.1631 250° West  Level Estimated
12:04PM -22.9105 -43.1631 250° West  Level Estimated
12:05PM -22.9105 -43.1631 250° West  Level Estimated
12:06PM -22.9105 -43.1631 250° West  Level Estimated
12:07PM -22.9105 -43.1631 250° West  Level Estimated
12:08PM -22.9105 -43.1631 250° West  Level Estimated
12:09PM -22.9105 -43.1631 250° West  Level Estimated
12:10PM -22.9105 -43.1631 250° West  Level Estimated